Time;durP1;ratioP1;P1;durP2;ratioP2;P2;SDS_P1;SDS_P2;PMS_P1;PMS_P2;Temp;Humidity;BMP_temperature;BMP_pressure;BME280_temperature;BME280_humidity;BME280_pressure;Samples;Min_cycle;Max_cycle;Signal;HPM_P1;HPM_P2
2024/01/14 00:01:59;;;;;;;15.80;15.20;;;;;;;-141.02;100.00;38540.38;5092619;28;20750;-67
2024/01/14 00:04:26;;;;;;;16.13;15.53;;;;;;;-141.02;100.00;38523.09;5092619;28;20201;-68
2024/01/14 00:06:53;;;;;;;17.03;16.33;;;;;;;-141.02;100.00;38523.09;5092866;28;20200;-66
2024/01/14 00:09:20;;;;;;;17.17;16.47;;;;;;;-141.02;100.00;38549.94;5093563;28;20193;-65
2024/01/14 00:11:48;;;;;;;17.30;16.60;;;;;;;-141.02;100.00;38515.44;5093452;28;20189;-66
2024/01/14 00:14:15;;;;;;;17.67;16.97;;;;;;;-141.02;100.00;38557.63;5092777;28;20200;-64
2024/01/14 00:16:42;;;;;;;16.77;16.07;;;;;;;-141.02;100.00;38327.56;5092506;28;20244;-65
2024/01/14 00:19:10;;;;;;;16.93;16.23;;;;;;;-141.02;100.00;38530.78;5092702;28;20212;-66
2024/01/14 00:21:37;;;;;;;17.70;17.00;;;;;;;-141.02;100.00;38530.78;5092379;28;20288;-66
2024/01/14 00:24:05;;;;;;;16.87;16.17;;;;;;;-141.02;100.00;38503.94;5092400;28;20205;-67
2024/01/14 00:26:32;;;;;;;16.73;16.03;;;;;;;-141.02;100.00;38515.44;5092333;28;20208;-64
2024/01/14 00:28:59;;;;;;;17.03;16.33;;;;;;;-141.02;100.00;38507.78;5092870;28;20367;-66
2024/01/14 00:31:27;;;;;;;16.07;15.47;;;;;;;-141.02;100.00;38494.34;5092234;28;20651;-67
2024/01/14 00:33:53;;;;;;;15.93;15.33;;;;;;;-141.02;100.00;38572.97;5091400;28;20200;-66
2024/01/14 00:36:22;;;;;;;16.43;15.83;;;;;;;-141.02;100.00;38323.72;5092052;28;20232;-67
2024/01/14 00:38:49;;;;;;;16.87;16.17;;;;;;;-141.02;100.00;38526.94;5092415;28;20284;-66
2024/01/14 00:41:16;;;;;;;16.80;16.20;;;;;;;-141.02;100.00;38521.19;5092468;28;20190;-67
2024/01/14 00:43:42;;;;;;;17.00;16.30;;;;;;;-141.02;100.00;38530.78;5092147;28;20190;-67
2024/01/14 00:46:09;;;;;;;17.00;16.30;;;;;;;-141.02;100.00;38519.28;5092386;28;20203;-66
2024/01/14 00:48:36;;;;;;;17.13;16.43;;;;;;;-141.02;100.00;38496.28;5092417;28;20193;-67
2024/01/14 00:51:03;;;;;;;16.90;16.20;;;;;;;-141.02;100.00;38511.59;5092394;28;20284;-66
2024/01/14 00:53:32;;;;;;;16.53;15.83;;;;;;;-141.02;100.00;38513.53;5092046;28;20190;-67
2024/01/14 00:55:59;;;;;;;19.23;18.43;;;;;;;-141.02;100.00;38513.53;5092191;28;20600;-67
2024/01/14 00:58:25;;;;;;;16.97;16.27;;;;;;;-141.02;100.00;38496.28;5091996;28;20664;-68
2024/01/14 01:00:53;;;;;;;17.10;16.40;;;;;;;-141.02;100.00;38530.78;5091915;28;20655;-65
2024/01/14 01:03:20;;;;;;;16.07;15.47;;;;;;;-141.02;100.00;38486.69;5091934;28;20240;-66
2024/01/14 01:05:47;;;;;;;16.37;15.67;;;;;;;-141.02;100.00;38488.59;5092204;28;20284;-68
2024/01/14 01:08:13;;;;;;;16.23;15.60;;;;;;;-141.02;100.00;38486.69;5092145;28;20280;-66
2024/01/14 01:10:42;;;;;;;18.77;17.83;;;;;;;-141.02;100.00;38507.78;5091815;28;20190;-67
2024/01/14 01:13:09;;;;;;;20.40;19.50;;;;;;;-141.02;100.00;38511.59;5092465;28;20201;-67
2024/01/14 01:15:36;;;;;;;18.87;17.97;;;;;;;-141.02;100.00;38500.09;5091535;28;20703;-66
2024/01/14 01:18:03;;;;;;;16.50;15.70;;;;;;;-141.02;100.00;38477.09;5092044;28;20194;-66
2024/01/14 01:20:31;;;;;;;17.87;17.07;;;;;;;-141.02;100.00;38480.94;5092222;28;20194;-67
2024/01/14 01:22:58;;;;;;;17.97;17.07;;;;;;;-141.02;100.00;38477.09;5091717;28;20194;-67
2024/01/14 01:25:25;;;;;;;18.30;17.40;;;;;;;-141.02;100.00;38503.94;5091686;28;20551;-66
2024/01/14 01:27:53;;;;;;;16.93;16.13;;;;;;;-141.02;100.00;38523.09;5092001;28;20190;-68
2024/01/14 01:30:20;;;;;;;17.60;16.80;;;;;;;-141.02;100.00;38484.75;5091633;28;20690;-67
2024/01/14 01:32:48;;;;;;;17.93;17.13;;;;;;;-141.02;100.00;38498.19;5091994;28;20278;-66
2024/01/14 01:35:15;;;;;;;20.13;19.13;;;;;;;-141.02;100.00;38503.94;5091599;28;20194;-67
2024/01/14 01:37:42;;;;;;;20.37;19.37;;;;;;;-141.02;100.00;38534.63;5091850;28;20300;-67
2024/01/14 01:40:10;;;;;;;19.43;18.43;;;;;;;-141.02;100.00;38515.44;5092121;28;20270;-66
2024/01/14 01:42:37;;;;;;;20.17;19.17;;;;;;;-141.02;100.00;38500.09;5092601;28;20203;-66
2024/01/14 01:45:06;;;;;;;20.50;19.50;;;;;;;-141.02;100.00;38500.09;5092903;28;20194;-67
2024/01/14 01:47:34;;;;;;;20.50;19.50;;;;;;;-141.02;100.00;38526.94;5095540;28;20225;-67
2024/01/14 01:50:01;;;;;;;19.70;18.70;;;;;;;-141.02;100.00;38511.59;5095780;28;20221;-66
2024/01/14 01:52:29;;;;;;;20.30;19.30;;;;;;;-141.02;100.00;38584.47;5095497;28;20285;-66
2024/01/14 01:54:57;;;;;;;19.80;18.80;;;;;;;-141.02;100.00;38542.28;5095461;28;20208;-67
2024/01/14 01:57:25;;;;;;;20.93;19.90;;;;;;;-141.02;100.00;38519.28;5095925;28;20272;-67
2024/01/14 01:59:53;;;;;;;20.67;19.67;;;;;;;-141.02;100.00;38534.63;5095009;28;20247;-67
2024/01/14 02:02:22;;;;;;;20.00;19.00;;;;;;;-141.02;100.00;38542.28;5095220;28;20749;-67
2024/01/14 02:04:50;;;;;;;20.37;19.37;;;;;;;-141.02;100.00;38572.97;5095274;28;20190;-64
2024/01/14 02:07:18;;;;;;;19.17;18.27;;;;;;;-141.02;100.00;38549.94;5095187;28;20194;-66
2024/01/14 02:09:46;;;;;;;20.73;19.73;;;;;;;-141.02;100.00;38534.63;5095156;28;20656;-66
2024/01/14 02:12:13;;;;;;;20.23;19.23;;;;;;;-141.02;100.00;38565.28;5094741;28;20284;-65
2024/01/14 02:14:40;;;;;;;20.30;19.30;;;;;;;-141.02;100.00;38496.28;5094545;28;20229;-66
2024/01/14 02:17:07;;;;;;;19.93;19.03;;;;;;;-141.02;100.00;38519.28;5094899;28;20746;-67
2024/01/14 02:19:35;;;;;;;19.37;18.47;;;;;;;-141.02;100.00;38500.09;5094632;28;20280;-66
2024/01/14 02:22:08;;;;;;;20.43;19.43;;;;;;;-141.02;100.00;38473.25;5094855;28;20293;-66
2024/01/14 02:24:39;;;;;;;19.87;18.87;;;;;;;-141.02;100.00;38509.69;5094938;28;20622;-67
2024/01/14 02:27:06;;;;;;;21.10;20.00;;;;;;;-141.02;100.00;38498.19;5095719;28;20281;-62
2024/01/14 02:29:36;;;;;;;22.67;21.57;;;;;;;-141.02;100.00;38477.09;5094757;28;20201;-67
2024/01/14 02:32:03;;;;;;;22.87;21.77;;;;;;;-141.02;100.00;38498.19;5094716;28;20192;-66
2024/01/14 02:34:32;;;;;;;22.37;21.27;;;;;;;-141.02;100.00;38523.09;5094921;28;20194;-66
2024/01/14 02:37:00;;;;;;;22.23;21.13;;;;;;;-141.02;100.00;38536.53;5094278;28;20226;-65
2024/01/14 02:39:27;;;;;;;23.20;22.10;;;;;;;-141.02;100.00;38461.75;5094562;28;20216;-67
2024/01/14 02:41:56;;;;;;;22.93;21.83;;;;;;;-141.02;100.00;38469.44;5094522;28;20222;-67
2024/01/14 02:44:23;;;;;;;23.13;22.13;;;;;;;-141.02;100.00;38440.66;5094702;28;20196;-67
2024/01/14 02:46:50;;;;;;;22.20;21.20;;;;;;;-141.02;100.00;38446.41;5094442;28;20198;-65
2024/01/14 02:49:17;;;;;;;22.73;21.67;;;;;;;-141.02;100.00;38419.56;5094376;28;20232;-63
2024/01/14 02:51:45;;;;;;;20.70;19.80;;;;;;;-141.02;100.00;38381.22;5094054;28;20198;-66
2024/01/14 02:54:12;;;;;;;20.63;19.73;;;;;;;-141.02;100.00;38404.25;5094340;28;20583;-64
2024/01/14 02:56:39;;;;;;;19.77;18.97;;;;;;;-141.02;100.00;38404.25;5093351;28;20307;-67
2024/01/14 02:59:08;;;;;;;20.10;19.20;;;;;;;-141.02;100.00;38381.22;5094206;28;20232;-62
2024/01/14 03:01:35;;;;;;;21.40;20.50;;;;;;;-141.02;100.00;38388.91;5094117;28;20343;-65
2024/01/14 03:04:02;;;;;;;20.07;19.17;;;;;;;-141.02;100.00;38375.47;5093693;28;20285;-64
2024/01/14 03:06:29;;;;;;;18.50;17.70;;;;;;;-141.02;100.00;38385.06;5093813;28;20194;-67
2024/01/14 03:08:55;;;;;;;19.67;18.87;;;;;;;-141.02;100.00;38362.06;5093650;28;20682;-64
2024/01/14 03:11:22;;;;;;;20.40;19.50;;;;;;;-141.02;100.00;38342.88;5094780;28;20216;-65
2024/01/14 03:13:49;;;;;;;20.40;19.50;;;;;;;-141.02;100.00;38408.06;5093884;28;20281;-67
2024/01/14 03:16:18;;;;;;;19.90;19.00;;;;;;;-141.02;100.00;38444.50;5093212;28;20241;-67
2024/01/14 03:18:45;;;;;;;19.03;18.23;;;;;;;-141.02;100.00;38408.06;5093512;28;20664;-64
2024/01/14 03:21:18;;;;;;;20.33;19.43;;;;;;;-141.02;100.00;38433.00;5093721;28;20197;-67
2024/01/14 03:23:45;;;;;;;20.17;19.27;;;;;;;-141.02;100.00;38415.75;5093690;28;20719;-67
2024/01/14 03:26:12;;;;;;;15.97;15.37;;;;;;;-141.02;100.00;38438.75;5093580;28;20276;-64
2024/01/14 03:28:40;;;;;;;16.70;16.00;;;;;;;-141.02;100.00;38404.25;5093298;28;20189;-66
2024/01/14 03:31:08;;;;;;;16.60;16.00;;;;;;;-141.02;100.00;38438.75;5093510;28;20210;-65
2024/01/14 03:33:36;;;;;;;16.30;15.70;;;;;;;-141.02;100.00;38448.34;5093479;28;20216;-67
2024/01/14 03:36:04;;;;;;;17.93;17.23;;;;;;;-141.02;100.00;38479.00;5093390;28;20194;-63
2024/01/14 03:38:31;;;;;;;17.60;16.90;;;;;;;-141.02;100.00;38492.44;5093639;28;20268;-67
2024/01/14 03:40:57;;;;;;;16.47;15.87;;;;;;;-141.02;100.00;38503.94;5093416;28;20621;-67
2024/01/14 03:43:24;;;;;;;16.90;16.20;;;;;;;-141.02;100.00;38515.44;5092981;28;20673;-67
2024/01/14 03:45:51;;;;;;;19.40;18.60;;;;;;;-141.02;100.00;38530.78;5093313;28;20217;-67
2024/01/14 03:48:18;;;;;;;16.50;15.80;;;;;;;-141.02;100.00;38507.78;5093448;28;20288;-66
2024/01/14 03:50:46;;;;;;;17.17;16.47;;;;;;;-141.02;100.00;38517.34;5092909;28;20276;-66
2024/01/14 03:53:13;;;;;;;18.37;17.47;;;;;;;-141.02;100.00;38454.09;5093224;28;20194;-66
2024/01/14 03:55:40;;;;;;;21.80;20.80;;;;;;;-141.02;100.00;38498.19;5093117;28;20281;-65
2024/01/14 03:58:07;;;;;;;22.77;21.77;;;;;;;-141.02;100.00;38461.75;5092706;28;20237;-67
2024/01/14 04:00:34;;;;;;;20.77;19.87;;;;;;;-141.02;100.00;38402.31;5093012;28;20194;-67
2024/01/14 04:03:01;;;;;;;20.10;19.30;;;;;;;-141.02;100.00;38385.06;5092985;28;20193;-66
2024/01/14 04:05:28;;;;;;;20.47;19.57;;;;;;;-141.02;100.00;38377.41;5092642;28;20674;-66
2024/01/14 04:07:57;;;;;;;19.87;19.07;;;;;;;-141.02;100.00;38450.25;5092465;28;20229;-67
2024/01/14 04:10:24;;;;;;;19.97;19.10;;;;;;;-141.02;100.00;38444.50;5092569;28;20664;-66
2024/01/14 04:12:51;;;;;;;19.57;18.77;;;;;;;-141.02;100.00;38446.41;5092867;28;20194;-67
2024/01/14 04:15:20;;;;;;;20.40;19.50;;;;;;;-141.02;100.00;38392.75;5092277;28;20675;-66
2024/01/14 04:17:47;;;;;;;20.37;19.47;;;;;;;-141.02;100.00;38394.66;5092383;28;20321;-67
2024/01/14 04:20:14;;;;;;;19.57;18.77;;;;;;;-141.02;100.00;38369.72;5092617;28;20196;-66
2024/01/14 04:22:41;;;;;;;18.60;17.90;;;;;;;-141.02;100.00;38385.06;5092963;28;20200;-66
2024/01/14 04:25:10;;;;;;;18.27;17.57;;;;;;;-141.02;100.00;38385.06;5092381;28;20288;-65
2024/01/14 04:27:38;;;;;;;16.80;16.20;;;;;;;-141.02;100.00;38369.72;5092314;28;20198;-66
2024/01/14 04:30:06;;;;;;;14.33;13.83;;;;;;;-141.02;100.00;38383.16;5092316;28;20233;-67
2024/01/14 04:32:36;;;;;;;16.10;15.50;;;;;;;-141.02;100.00;38363.97;5092601;28;20201;-66
2024/01/14 04:35:04;;;;;;;14.77;14.27;;;;;;;-141.02;100.00;38365.91;5092550;28;20293;-66
2024/01/14 04:37:32;;;;;;;14.33;13.83;;;;;;;-141.02;100.00;38400.41;5092419;28;20257;-67
2024/01/14 04:39:59;;;;;;;14.23;13.73;;;;;;;-141.02;100.00;38375.47;5092201;28;20625;-67
2024/01/14 04:42:28;;;;;;;14.50;14.00;;;;;;;-141.02;100.00;38354.41;5092435;28;20228;-67
2024/01/14 04:44:55;;;;;;;14.43;13.93;;;;;;;-141.02;100.00;38396.56;5092413;28;20197;-66
2024/01/14 04:47:22;;;;;;;14.73;14.23;;;;;;;-141.02;100.00;38381.22;5092412;28;20190;-66
2024/01/14 04:49:49;;;;;;;14.83;14.30;;;;;;;-141.02;100.00;38375.47;5092420;28;20198;-66
2024/01/14 04:52:16;;;;;;;13.93;13.43;;;;;;;-141.02;100.00;38392.75;5092483;28;20201;-66
2024/01/14 04:54:42;;;;;;;15.10;14.50;;;;;;;-141.02;100.00;38385.06;5092262;28;20194;-66
2024/01/14 04:57:09;;;;;;;18.73;18.03;;;;;;;-141.02;100.00;38352.47;5091931;28;20272;-66
2024/01/14 04:59:38;;;;;;;16.13;15.53;;;;;;;-141.02;100.00;38436.84;5092276;28;20198;-66
2024/01/14 05:02:05;;;;;;;15.73;15.13;;;;;;;-141.02;100.00;38411.91;5091894;28;20233;-63
2024/01/14 05:04:32;;;;;;;15.37;14.80;;;;;;;-141.02;100.00;38433.00;5091896;28;20280;-66
2024/01/14 05:06:59;;;;;;;16.30;15.70;;;;;;;-141.02;100.00;38350.56;5092169;28;20280;-67
2024/01/14 05:09:26;;;;;;;16.20;15.60;;;;;;;-141.02;100.00;38339.06;5092155;28;20671;-65
2024/01/14 05:11:53;;;;;;;16.67;16.07;;;;;;;-141.02;100.00;38277.72;5091807;28;20197;-66
2024/01/14 05:14:20;;;;;;;15.20;14.70;;;;;;;-141.02;100.00;38310.28;5092117;28;20193;-66
2024/01/14 05:16:48;;;;;;;15.47;14.97;;;;;;;-141.02;100.00;38279.63;5091583;28;20312;-66
2024/01/14 05:19:15;;;;;;;14.93;14.43;;;;;;;-141.02;100.00;38319.88;5091755;28;20657;-66
2024/01/14 05:21:42;;;;;;;13.23;12.83;;;;;;;-141.02;100.00;38285.38;5095895;28;20201;-68
2024/01/14 05:24:09;;;;;;;13.67;13.17;;;;;;;-141.02;100.00;38285.38;5095713;28;20194;-63
2024/01/14 05:26:40;;;;;;;12.90;12.50;;;;;;;-141.02;100.00;38289.22;5095978;28;20208;-65
2024/01/14 05:29:07;;;;;;;12.80;12.40;;;;;;;-141.02;100.00;38293.03;5095643;28;20563;-64
2024/01/14 05:31:36;;;;;;;12.40;12.00;;;;;;;-141.02;100.00;38304.53;5095930;28;20255;-66
2024/01/14 05:34:04;;;;;;;13.17;12.77;;;;;;;-141.02;100.00;38342.88;5095912;28;20288;-64
2024/01/14 05:36:31;;;;;;;13.20;12.80;;;;;;;-141.02;100.00;38433.00;5095795;28;20272;-65
2024/01/14 05:38:58;;;;;;;13.33;12.93;;;;;;;-141.02;100.00;38534.63;5096023;28;20229;-64
2024/01/14 05:41:25;;;;;;;12.77;12.37;;;;;;;-141.02;100.00;38745.53;5095671;28;20204;-66
2024/01/14 05:43:52;;;;;;;12.83;12.43;;;;;;;-141.02;100.00;38906.59;5095682;28;20281;-67
2024/01/14 05:46:19;;;;;;;12.90;12.50;;;;;;;-141.02;100.00;39023.56;5095645;28;20194;-67
2024/01/14 05:48:46;;;;;;;13.60;13.20;;;;;;;-141.02;100.00;39048.50;5095189;28;20197;-64
2024/01/14 05:51:15;;;;;;;12.60;12.20;;;;;;;-141.02;100.00;39084.91;5095588;28;20220;-67
2024/01/14 05:53:41;;;;;;;12.37;11.97;;;;;;;-141.02;100.00;39084.91;5095450;28;20277;-63
2024/01/14 05:56:08;;;;;;;12.63;12.23;;;;;;;-141.02;100.00;39106.00;5095476;28;20193;-66
2024/01/14 05:58:35;;;;;;;12.33;11.93;;;;;;;-141.02;100.00;39146.28;5095310;28;20252;-65
2024/01/14 06:01:03;;;;;;;12.43;12.03;;;;;;;-141.02;100.00;39255.59;5095089;28;20190;-64
2024/01/14 06:03:30;;;;;;;12.37;11.97;;;;;;;-141.02;100.00;39401.34;5094946;28;20633;-66
2024/01/14 06:05:57;;;;;;;12.53;12.13;;;;;;;-141.02;100.00;39489.56;5095195;28;20284;-67
2024/01/14 06:08:25;;;;;;;12.67;12.27;;;;;;;-141.02;100.00;39612.31;5094863;28;20204;-66
2024/01/14 06:10:52;;;;;;;12.27;11.87;;;;;;;-141.02;100.00;39673.69;5095136;28;20273;-66
2024/01/14 06:13:19;;;;;;;12.57;12.17;;;;;;;-141.02;100.00;39631.47;5094869;28;20685;-65
2024/01/14 06:15:46;;;;;;;12.67;12.27;;;;;;;-141.02;100.00;39681.34;5094692;28;20229;-66
2024/01/14 06:18:13;;;;;;;12.80;12.40;;;;;;;-141.02;100.00;39715.88;5094956;28;20316;-66
2024/01/14 06:20:40;;;;;;;12.93;12.53;;;;;;;-141.02;100.00;39731.22;5094703;28;20197;-66
2024/01/14 06:23:07;;;;;;;13.30;12.90;;;;;;;-141.02;100.00;39754.22;5095141;28;20200;-65
2024/01/14 06:25:35;;;;;;;14.00;13.50;;;;;;;-141.02;100.00;39708.19;5094888;28;20248;-65
2024/01/14 06:28:02;;;;;;;15.40;14.80;;;;;;;-141.02;100.00;39692.84;5094790;28;20194;-67
2024/01/14 06:30:29;;;;;;;15.97;15.27;;;;;;;-141.02;100.00;39692.84;5094957;28;20266;-66
2024/01/14 06:32:56;;;;;;;16.13;15.43;;;;;;;-141.02;100.00;39689.03;5093542;28;20201;-66
2024/01/14 06:35:23;;;;;;;16.60;15.90;;;;;;;-141.02;100.00;39719.72;5094621;28;20232;-66
2024/01/14 06:37:50;;;;;;;16.90;16.20;;;;;;;-141.02;100.00;39742.72;5094778;28;20221;-67
2024/01/14 06:40:17;;;;;;;16.40;15.70;;;;;;;-141.02;100.00;39717.78;5094281;28;20202;-67
2024/01/14 06:42:45;;;;;;;17.27;16.47;;;;;;;-141.02;100.00;39750.41;5094206;28;20664;-65
2024/01/14 06:45:13;;;;;;;16.50;15.80;;;;;;;-141.02;100.00;39760.00;5094486;28;20193;-66
2024/01/14 06:47:40;;;;;;;16.27;15.57;;;;;;;-141.02;100.00;39662.16;5094364;28;20200;-67
2024/01/14 06:50:10;;;;;;;16.67;15.97;;;;;;;-141.02;100.00;39685.19;5094069;28;20682;-66
2024/01/14 06:52:37;;;;;;;15.70;15.10;;;;;;;-141.02;100.00;39736.97;5094063;28;20236;-67
2024/01/14 06:55:05;;;;;;;15.90;15.27;;;;;;;-141.02;100.00;39783.00;5094035;28;20207;-67
2024/01/14 06:57:33;;;;;;;16.70;16.00;;;;;;;-141.02;100.00;39798.34;5094158;28;20222;-67
2024/01/14 07:00:03;;;;;;;16.03;15.33;;;;;;;-141.02;100.00;39934.53;5093936;28;20240;-67
2024/01/14 07:02:30;;;;;;;15.60;15.00;;;;;;;-141.02;100.00;39946.03;5094240;28;20268;-66
2024/01/14 07:04:57;;;;;;;14.57;14.07;;;;;;;-141.02;100.00;39997.81;5094133;28;20190;-66
2024/01/14 07:07:24;;;;;;;14.43;13.93;;;;;;;-141.02;100.00;40022.75;5094068;28;20284;-67
2024/01/14 07:09:51;;;;;;;14.43;13.93;;;;;;;-141.02;100.00;40061.13;5093990;28;20276;-67
2024/01/14 07:12:18;;;;;;;14.60;14.10;;;;;;;-141.02;100.00;40061.13;5094272;28;20201;-67
2024/01/14 07:14:45;;;;;;;16.10;15.50;;;;;;;-141.02;100.00;40038.09;5093685;28;20220;-66
2024/01/14 07:17:14;;;;;;;16.00;15.40;;;;;;;-141.02;100.00;40053.44;5093775;28;20273;-66
2024/01/14 07:19:41;;;;;;;16.57;15.87;;;;;;;-141.02;100.00;40072.63;5093728;28;20571;-67
2024/01/14 07:22:07;;;;;;;17.27;16.47;;;;;;;-141.02;100.00;40105.25;5093750;28;20278;-68
2024/01/14 07:24:34;;;;;;;17.90;17.10;;;;;;;-141.02;100.00;40057.28;5093726;28;20204;-68
2024/01/14 07:27:02;;;;;;;18.40;17.50;;;;;;;-141.02;100.00;40034.28;5093356;28;20725;-67
2024/01/14 07:29:29;;;;;;;18.73;17.83;;;;;;;-141.02;100.00;40018.94;5093248;28;20578;-67
2024/01/14 07:31:56;;;;;;;19.57;18.57;;;;;;;-141.02;100.00;40007.41;5093316;28;20194;-68
2024/01/14 07:34:24;;;;;;;19.20;18.20;;;;;;;-141.02;100.00;40022.75;5093186;28;20668;-68
2024/01/14 07:36:51;;;;;;;17.90;17.03;;;;;;;-141.02;100.00;39961.38;5093513;28;20197;-67
2024/01/14 07:39:18;;;;;;;18.40;17.50;;;;;;;-141.02;100.00;39804.09;5093077;28;20729;-68
2024/01/14 07:41:45;;;;;;;17.70;16.90;;;;;;;-141.02;100.00;39790.69;5093046;28;20198;-68
2024/01/14 07:44:12;;;;;;;17.77;16.97;;;;;;;-141.02;100.00;39953.72;5092734;28;20674;-67
2024/01/14 07:46:39;;;;;;;18.00;17.20;;;;;;;-141.02;100.00;39999.75;5093088;28;20656;-65
2024/01/14 07:49:06;;;;;;;17.17;16.37;;;;;;;-141.02;100.00;40049.63;5093532;28;20197;-66
2024/01/14 07:51:34;;;;;;;15.87;15.23;;;;;;;-141.02;100.00;40020.84;5092807;28;20285;-67
2024/01/14 07:54:01;;;;;;;16.10;15.40;;;;;;;-141.02;100.00;40026.59;5093200;28;20281;-65
2024/01/14 07:56:28;;;;;;;15.33;14.73;;;;;;;-141.02;100.00;40072.63;5093149;28;20198;-67
2024/01/14 07:58:55;;;;;;;15.77;15.17;;;;;;;-141.02;100.00;40149.38;5092907;28;20715;-67
2024/01/14 08:01:22;;;;;;;17.43;16.73;;;;;;;-141.02;100.00;40218.41;5092763;28;20667;-66
2024/01/14 08:03:49;;;;;;;16.13;15.43;;;;;;;-141.02;100.00;40191.56;5092665;28;20281;-66
2024/01/14 08:06:22;;;;;;;17.10;16.30;;;;;;;-141.02;100.00;40222.25;5092637;28;20196;-67
2024/01/14 08:08:50;;;;;;;18.93;18.03;;;;;;;-141.02;100.00;40251.03;5092930;28;20186;-66
2024/01/14 08:11:18;;;;;;;18.90;18.00;;;;;;;-141.02;100.00;40268.28;5092544;28;20660;-68
2024/01/14 08:13:45;;;;;;;18.53;17.63;;;;;;;-141.02;100.00;40302.81;5092567;28;20198;-68
2024/01/14 08:16:12;;;;;;;18.37;17.47;;;;;;;-141.02;100.00;40341.19;5092357;28;20312;-67
2024/01/14 08:18:39;;;;;;;19.30;18.40;;;;;;;-141.02;100.00;40387.22;5092285;28;20225;-68
2024/01/14 08:21:09;;;;;;;20.90;19.80;;;;;;;-141.02;100.00;40458.22;5092653;28;20190;-68
2024/01/14 08:23:37;;;;;;;19.30;18.30;;;;;;;-141.02;100.00;40479.31;5092759;28;20225;-67
2024/01/14 08:26:06;;;;;;;20.17;19.07;;;;;;;-141.02;100.00;40521.50;5092403;28;20200;-67
2024/01/14 08:28:33;;;;;;;20.90;19.80;;;;;;;-141.02;100.00;40563.72;5092652;28;20276;-67
2024/01/14 08:31:00;;;;;;;19.97;18.97;;;;;;;-141.02;100.00;40552.22;5092659;28;20198;-69
2024/01/14 08:33:28;;;;;;;22.23;21.13;;;;;;;-141.02;100.00;40548.38;5092854;28;20322;-70
2024/01/14 08:35:55;;;;;;;22.23;21.13;;;;;;;-141.02;100.00;40536.88;5092583;28;20205;-66
2024/01/14 08:38:23;;;;;;;22.47;21.27;;;;;;;-141.02;100.00;40504.25;5092117;28;20227;-66
2024/01/14 08:40:50;;;;;;;19.83;18.73;;;;;;;-141.02;100.00;40559.88;5092566;28;20221;-66
2024/01/14 08:43:18;;;;;;;19.70;18.70;;;;;;;-141.02;100.00;40613.59;5092439;28;20190;-64
2024/01/14 08:45:46;;;;;;;20.13;19.03;;;;;;;-141.02;100.00;40611.69;5092128;28;20729;-65
2024/01/14 08:48:13;;;;;;;18.80;17.70;;;;;;;-141.02;100.00;40621.28;5092443;28;20665;-66
2024/01/14 08:50:41;;;;;;;20.47;19.37;;;;;;;-141.02;100.00;40671.16;5092348;28;20284;-67
2024/01/14 08:53:08;;;;;;;20.30;19.10;;;;;;;-141.02;100.00;40684.59;5092372;28;20190;-66
2024/01/14 08:55:35;;;;;;;18.87;17.77;;;;;;;-141.02;100.00;40765.16;5094445;28;20574;-65
2024/01/14 08:58:02;;;;;;;20.30;19.10;;;;;;;-141.02;100.00;40767.09;5096486;28;20232;-65
2024/01/14 09:00:30;;;;;;;20.90;19.70;;;;;;;-141.02;100.00;40793.94;5096204;28;20747;-66
2024/01/14 09:02:57;;;;;;;20.77;19.57;;;;;;;-141.02;100.00;40891.78;5096104;28;20200;-71
2024/01/14 09:05:24;;;;;;;20.93;19.73;;;;;;;-141.02;100.00;40930.16;5096477;28;20618;-68
2024/01/14 09:07:51;;;;;;;23.80;22.40;;;;;;;-141.02;100.00;41001.16;5096312;28;20682;-71
2024/01/14 09:10:18;;;;;;;21.50;20.20;;;;;;;-141.02;100.00;40989.66;5096388;28;20197;-72
2024/01/14 09:12:45;;;;;;;21.67;20.37;;;;;;;-141.02;100.00;40841.91;5096184;28;20706;-72
2024/01/14 09:15:12;;;;;;;22.20;20.90;;;;;;;-141.02;100.00;40770.91;5096028;28;20309;-73
2024/01/14 09:17:41;;;;;;;22.03;20.73;;;;;;;-141.02;100.00;40755.56;5095911;28;20289;-71
2024/01/14 09:20:09;;;;;;;21.50;20.20;;;;;;;-141.02;100.00;40732.56;5096057;28;20229;-70
2024/01/14 09:22:36;;;;;;;22.10;20.80;;;;;;;-141.02;100.00;40847.66;5095788;28;20201;-70
2024/01/14 09:25:03;;;;;;;22.23;20.93;;;;;;;-141.02;100.00;40874.53;5096045;28;20194;-69
2024/01/14 09:27:30;;;;;;;21.67;20.37;;;;;;;-141.02;100.00;40803.53;5095690;28;20284;-69
2024/01/14 09:29:57;;;;;;;21.40;20.10;;;;;;;-141.02;100.00;40786.28;5095643;28;20194;-69
2024/01/14 09:32:25;;;;;;;21.20;19.90;;;;;;;-141.02;100.00;40874.53;5095815;28;20189;-68
2024/01/14 09:34:53;;;;;;;20.50;19.20;;;;;;;-141.02;100.00;40905.22;5095840;28;20190;-69
2024/01/14 09:37:20;;;;;;;20.53;19.23;;;;;;;-141.02;100.00;40857.25;5095745;28;20296;-69
2024/01/14 09:39:48;;;;;;;20.60;19.40;;;;;;;-141.02;100.00;40897.56;5095347;28;20228;-68
2024/01/14 09:42:22;;;;;;;20.80;19.50;;;;;;;-141.02;100.00;40926.31;5095612;28;20585;-68
2024/01/14 09:44:49;;;;;;;21.40;20.00;;;;;;;-141.02;100.00;40886.03;5095358;28;20277;-67
2024/01/14 09:47:18;;;;;;;21.00;19.60;;;;;;;-141.02;97.12;40905.22;5095628;28;20221;-68
2024/01/14 09:49:45;;;;;;;21.23;19.87;;;;;;;-141.02;96.72;41008.84;5095512;28;20189;-68
2024/01/14 09:52:14;;;;;;;21.50;20.00;;;;;;;-141.02;100.00;41043.38;5095244;28;20200;-67
2024/01/14 09:54:41;;;;;;;21.20;19.70;;;;;;;-141.02;98.08;41062.56;5095448;28;20194;-67
2024/01/14 09:57:13;;;;;;;22.00;20.50;;;;;;;-141.02;86.62;41028.03;5095114;28;20196;-66
2024/01/14 09:59:43;;;;;;;21.60;20.10;;;;;;;-141.02;86.86;41079.81;5095044;28;20691;-66
2024/01/14 10:02:11;;;;;;;21.90;20.40;;;;;;;-141.02;86.85;41152.75;5095437;28;20182;-66
2024/01/14 10:04:40;;;;;;;22.57;20.87;;;;;;;-141.02;79.48;41265.94;5094985;28;20566;-66
2024/01/14 10:07:07;;;;;;;21.80;20.10;;;;;;;-141.02;78.63;41298.56;5095007;28;20221;-65
2024/01/14 10:09:36;;;;;;;22.77;21.07;;;;;;;-141.02;80.29;41365.72;5095290;28;20277;-65
2024/01/14 10:12:03;;;;;;;22.90;21.10;;;;;;;-141.02;79.54;41358.06;5094845;28;20193;-65
2024/01/14 10:14:30;;;;;;;22.03;20.33;;;;;;;-141.02;79.83;41181.53;5095000;28;20190;-65
2024/01/14 10:16:57;;;;;;;22.67;20.87;;;;;;;-141.02;78.87;41254.44;5094739;28;20674;-64
2024/01/14 10:19:25;;;;;;;22.50;20.70;;;;;;;-141.02;79.59;41308.16;5094717;28;20642;-64
2024/01/14 10:21:55;;;;;;;22.40;20.60;;;;;;;-141.02;78.82;41333.09;5095022;28;20197;-64
2024/01/14 10:24:22;;;;;;;23.03;21.23;;;;;;;-141.02;79.60;41296.66;5094925;28;20204;-64
2024/01/14 10:26:54;;;;;;;23.10;21.20;;;;;;;-141.02;81.38;41392.59;5094949;28;20205;-64
2024/01/14 10:29:21;;;;;;;22.53;20.63;;;;;;;-141.02;80.28;41275.53;5095402;28;20280;-64
2024/01/14 10:31:48;;;;;;;23.07;21.17;;;;;;;-141.02;80.54;41377.25;5094814;28;20229;-64
2024/01/14 10:34:16;;;;;;;22.87;20.97;;;;;;;-141.02;80.13;41329.28;5094803;28;20198;-65
2024/01/14 10:36:43;;;;;;;23.60;21.60;;;;;;;-141.02;79.93;41365.72;5094754;28;20281;-64
2024/01/14 10:39:12;;;;;;;23.13;21.17;;;;;;;-141.02;81.08;41411.78;5094583;28;20225;-65
2024/01/14 10:41:39;;;;;;;23.43;21.50;;;;;;;-141.02;81.81;41434.81;5094325;28;20680;-65
2024/01/14 10:44:07;;;;;;;23.00;21.10;;;;;;;-141.02;89.47;41461.69;5094278;28;20280;-65
2024/01/14 10:46:35;;;;;;;22.80;20.90;;;;;;;-141.02;91.84;41507.72;5094144;28;20565;-65
2024/01/14 10:49:06;;;;;;;23.07;21.17;;;;;;;-141.02;86.70;41494.31;5094400;28;20206;-65
2024/01/14 10:51:39;;;;;;;24.27;22.27;;;;;;;-141.02;78.89;41369.56;5094415;28;20219;-66
2024/01/14 10:54:14;;;;;;;24.10;22.10;;;;;;;-141.02;83.31;41143.16;5094087;28;20186;-66
2024/01/14 10:56:48;;;;;;;23.13;21.23;;;;;;;-141.02;84.46;41145.06;5094281;28;20182;-65